sensor_id;sensor_type;location;lat;lon;timestamp;temperature;humidity
11264;DHT22;5689;48.798;9.070;2023-02-28T00:01:36;-2.10;92.30
11264;DHT22;5689;48.798;9.070;2023-02-28T00:04:04;-2.30;92.40
11264;DHT22;5689;48.798;9.070;2023-02-28T00:06:34;-2.30;92.60
11264;DHT22;5689;48.798;9.070;2023-02-28T00:09:02;-2.40;92.60
11264;DHT22;5689;48.798;9.070;2023-02-28T00:11:30;-2.40;92.80
11264;DHT22;5689;48.798;9.070;2023-02-28T00:13:58;-2.40;93.10
11264;DHT22;5689;48.798;9.070;2023-02-28T00:16:26;-2.40;93.20
11264;DHT22;5689;48.798;9.070;2023-02-28T00:18:54;-2.40;93.00
11264;DHT22;5689;48.798;9.070;2023-02-28T00:21:22;-2.30;93.30
11264;DHT22;5689;48.798;9.070;2023-02-28T00:23:52;-2.40;93.10
11264;DHT22;5689;48.798;9.070;2023-02-28T00:26:20;-2.60;93.20
11264;DHT22;5689;48.798;9.070;2023-02-28T00:28:48;-2.70;93.70
11264;DHT22;5689;48.798;9.070;2023-02-28T00:31:17;-2.70;94.00
11264;DHT22;5689;48.798;9.070;2023-02-28T00:33:44;-2.50;94.30
11264;DHT22;5689;48.798;9.070;2023-02-28T00:36:13;-2.50;94.10
11264;DHT22;5689;48.798;9.070;2023-02-28T00:38:41;-2.50;94.20
11264;DHT22;5689;48.798;9.070;2023-02-28T00:41:11;-2.70;94.20
11264;DHT22;5689;48.798;9.070;2023-02-28T00:43:40;-2.80;94.40
11264;DHT22;5689;48.798;9.070;2023-02-28T00:46:10;-2.60;94.60
11264;DHT22;5689;48.798;9.070;2023-02-28T00:48:38;-2.80;94.70
11264;DHT22;5689;48.798;9.070;2023-02-28T00:51:06;-2.90;95.10
11264;DHT22;5689;48.798;9.070;2023-02-28T00:53:34;-2.70;95.20
11264;DHT22;5689;48.798;9.070;2023-02-28T00:56:02;-2.70;95.20
11264;DHT22;5689;48.798;9.070;2023-02-28T00:58:32;-2.80;95.20
11264;DHT22;5689;48.798;9.070;2023-02-28T01:01:00;-2.70;95.40
11264;DHT22;5689;48.798;9.070;2023-02-28T01:03:28;-2.70;95.40
11264;DHT22;5689;48.798;9.070;2023-02-28T01:05:57;-2.80;95.60
11264;DHT22;5689;48.798;9.070;2023-02-28T01:08:25;-2.80;95.90
11264;DHT22;5689;48.798;9.070;2023-02-28T01:10:53;-2.80;95.90
11264;DHT22;5689;48.798;9.070;2023-02-28T01:13:22;-2.70;96.20
11264;DHT22;5689;48.798;9.070;2023-02-28T01:15:54;-2.80;96.10
11264;DHT22;5689;48.798;9.070;2023-02-28T01:18:22;-3.00;96.60
11264;DHT22;5689;48.798;9.070;2023-02-28T01:20:51;-2.90;96.80
11264;DHT22;5689;48.798;9.070;2023-02-28T01:23:19;-2.90;97.10
11264;DHT22;5689;48.798;9.070;2023-02-28T01:25:48;-2.80;97.30
11264;DHT22;5689;48.798;9.070;2023-02-28T01:28:16;-2.90;97.30
11264;DHT22;5689;48.798;9.070;2023-02-28T01:30:47;-2.80;97.70
11264;DHT22;5689;48.798;9.070;2023-02-28T01:33:17;-2.80;97.80
11264;DHT22;5689;48.798;9.070;2023-02-28T01:35:45;-2.90;97.90
11264;DHT22;5689;48.798;9.070;2023-02-28T01:38:13;-2.90;98.40
11264;DHT22;5689;48.798;9.070;2023-02-28T01:40:48;-2.90;98.60
11264;DHT22;5689;48.798;9.070;2023-02-28T01:43:21;-2.80;98.80
11264;DHT22;5689;48.798;9.070;2023-02-28T01:45:50;-2.80;99.00
11264;DHT22;5689;48.798;9.070;2023-02-28T01:48:22;-2.70;99.40
11264;DHT22;5689;48.798;9.070;2023-02-28T01:50:50;-2.90;99.40
11264;DHT22;5689;48.798;9.070;2023-02-28T01:53:21;-2.80;99.90
11264;DHT22;5689;48.798;9.070;2023-02-28T01:55:53;-2.70;99.90
11264;DHT22;5689;48.798;9.070;2023-02-28T01:58:21;-2.80;99.90
11264;DHT22;5689;48.798;9.070;2023-02-28T02:00:49;-2.70;99.90
11264;DHT22;5689;48.798;9.070;2023-02-28T02:03:20;-2.70;99.90
11264;DHT22;5689;48.798;9.070;2023-02-28T02:05:48;-2.70;99.90
11264;DHT22;5689;48.798;9.070;2023-02-28T02:08:19;-2.80;99.90
11264;DHT22;5689;48.798;9.070;2023-02-28T02:10:49;-2.80;99.90
11264;DHT22;5689;48.798;9.070;2023-02-28T02:16:30;-2.90;99.90
11264;DHT22;5689;48.798;9.070;2023-02-28T02:19:15;-2.80;99.90
11264;DHT22;5689;48.798;9.070;2023-02-28T02:22:12;-2.80;99.90
11264;DHT22;5689;48.798;9.070;2023-02-28T02:24:58;-2.80;99.90
11264;DHT22;5689;48.798;9.070;2023-02-28T02:27:46;-2.80;99.90
11264;DHT22;5689;48.798;9.070;2023-02-28T02:30:44;-2.80;99.90
11264;DHT22;5689;48.798;9.070;2023-02-28T02:33:30;-2.90;99.90
11264;DHT22;5689;48.798;9.070;2023-02-28T02:36:07;-3.00;99.90
11264;DHT22;5689;48.798;9.070;2023-02-28T02:38:44;-3.00;99.90
11264;DHT22;5689;48.798;9.070;2023-02-28T02:41:18;-3.00;99.90
11264;DHT22;5689;48.798;9.070;2023-02-28T02:43:49;-3.00;99.90
11264;DHT22;5689;48.798;9.070;2023-02-28T02:46:23;-3.00;99.90
11264;DHT22;5689;48.798;9.070;2023-02-28T02:48:52;-3.00;99.90
11264;DHT22;5689;48.798;9.070;2023-02-28T02:51:23;-2.80;99.90
11264;DHT22;5689;48.798;9.070;2023-02-28T02:53:55;-2.60;99.90
11264;DHT22;5689;48.798;9.070;2023-02-28T02:56:27;-2.60;99.90
11264;DHT22;5689;48.798;9.070;2023-02-28T02:58:58;-2.60;99.90
11264;DHT22;5689;48.798;9.070;2023-02-28T03:01:29;-2.60;99.90
11264;DHT22;5689;48.798;9.070;2023-02-28T03:04:01;-2.50;99.90
11264;DHT22;5689;48.798;9.070;2023-02-28T03:06:31;-2.40;99.90
11264;DHT22;5689;48.798;9.070;2023-02-28T03:09:00;-2.50;99.90
11264;DHT22;5689;48.798;9.070;2023-02-28T03:11:28;-2.50;99.90
11264;DHT22;5689;48.798;9.070;2023-02-28T03:14:25;-2.40;99.90
11264;DHT22;5689;48.798;9.070;2023-02-28T03:17:19;-2.30;99.90
11264;DHT22;5689;48.798;9.070;2023-02-28T03:20:02;-2.20;99.90
11264;DHT22;5689;48.798;9.070;2023-02-28T03:22:49;-2.30;99.90
11264;DHT22;5689;48.798;9.070;2023-02-28T03:25:26;-2.30;99.90
11264;DHT22;5689;48.798;9.070;2023-02-28T03:28:02;-2.20;99.90
11264;DHT22;5689;48.798;9.070;2023-02-28T03:30:41;-2.10;99.90
11264;DHT22;5689;48.798;9.070;2023-02-28T03:33:14;-2.20;99.90
11264;DHT22;5689;48.798;9.070;2023-02-28T03:35:47;-2.10;99.90
11264;DHT22;5689;48.798;9.070;2023-02-28T03:38:22;-2.10;99.90
11264;DHT22;5689;48.798;9.070;2023-02-28T03:40:57;-2.00;99.90
11264;DHT22;5689;48.798;9.070;2023-02-28T03:43:29;-2.10;99.90
11264;DHT22;5689;48.798;9.070;2023-02-28T03:46:02;-2.20;99.90
11264;DHT22;5689;48.798;9.070;2023-02-28T03:48:36;-2.20;99.90
11264;DHT22;5689;48.798;9.070;2023-02-28T03:51:07;-2.20;99.90
11264;DHT22;5689;48.798;9.070;2023-02-28T03:53:39;-2.10;99.90
11264;DHT22;5689;48.798;9.070;2023-02-28T03:56:12;-2.10;99.90
11264;DHT22;5689;48.798;9.070;2023-02-28T03:58:47;-2.10;99.90
11264;DHT22;5689;48.798;9.070;2023-02-28T04:01:20;-2.10;99.90
11264;DHT22;5689;48.798;9.070;2023-02-28T04:03:50;-2.10;99.90
11264;DHT22;5689;48.798;9.070;2023-02-28T04:06:20;-1.90;99.90
11264;DHT22;5689;48.798;9.070;2023-02-28T04:08:50;-1.90;99.90
11264;DHT22;5689;48.798;9.070;2023-02-28T04:11:21;-1.90;99.90
11264;DHT22;5689;48.798;9.070;2023-02-28T04:13:49;-1.90;99.90
11264;DHT22;5689;48.798;9.070;2023-02-28T04:16:17;-2.00;99.90
11264;DHT22;5689;48.798;9.070;2023-02-28T04:19:00;-2.10;99.90
11264;DHT22;5689;48.798;9.070;2023-02-28T04:21:30;-2.00;99.90
11264;DHT22;5689;48.798;9.070;2023-02-28T04:24:00;-2.00;99.90
11264;DHT22;5689;48.798;9.070;2023-02-28T04:26:29;-1.90;99.90
11264;DHT22;5689;48.798;9.070;2023-02-28T04:29:06;-1.80;99.90
11264;DHT22;5689;48.798;9.070;2023-02-28T04:31:35;-1.90;99.90
11264;DHT22;5689;48.798;9.070;2023-02-28T04:34:03;-1.80;99.90
11264;DHT22;5689;48.798;9.070;2023-02-28T04:36:31;-1.80;99.90
11264;DHT22;5689;48.798;9.070;2023-02-28T04:39:01;-1.80;99.90
11264;DHT22;5689;48.798;9.070;2023-02-28T04:41:30;-1.90;99.90
11264;DHT22;5689;48.798;9.070;2023-02-28T04:43:59;-1.90;99.90
11264;DHT22;5689;48.798;9.070;2023-02-28T04:46:27;-1.90;99.90
11264;DHT22;5689;48.798;9.070;2023-02-28T04:48:55;-1.80;99.90
11264;DHT22;5689;48.798;9.070;2023-02-28T04:51:23;-1.90;99.90
11264;DHT22;5689;48.798;9.070;2023-02-28T04:53:52;-1.90;99.90
11264;DHT22;5689;48.798;9.070;2023-02-28T04:56:22;-1.90;99.90
11264;DHT22;5689;48.798;9.070;2023-02-28T04:58:50;-1.90;99.90
11264;DHT22;5689;48.798;9.070;2023-02-28T05:01:22;-1.90;99.90
11264;DHT22;5689;48.798;9.070;2023-02-28T05:03:51;-1.80;99.90
11264;DHT22;5689;48.798;9.070;2023-02-28T05:06:21;-1.70;99.90
11264;DHT22;5689;48.798;9.070;2023-02-28T05:08:50;-1.70;99.90
11264;DHT22;5689;48.798;9.070;2023-02-28T05:11:20;-1.70;99.90
11264;DHT22;5689;48.798;9.070;2023-02-28T05:13:50;-1.60;99.90
11264;DHT22;5689;48.798;9.070;2023-02-28T05:16:19;-1.50;99.90
11264;DHT22;5689;48.798;9.070;2023-02-28T05:18:47;-1.60;99.90
11264;DHT22;5689;48.798;9.070;2023-02-28T05:21:25;-1.60;99.90
11264;DHT22;5689;48.798;9.070;2023-02-28T05:23:55;-1.50;99.90
11264;DHT22;5689;48.798;9.070;2023-02-28T05:26:24;-1.50;99.90
11264;DHT22;5689;48.798;9.070;2023-02-28T05:28:54;-1.70;99.90
11264;DHT22;5689;48.798;9.070;2023-02-28T05:31:22;-1.70;99.90
11264;DHT22;5689;48.798;9.070;2023-02-28T05:33:51;-1.50;99.90
11264;DHT22;5689;48.798;9.070;2023-02-28T05:36:19;-1.60;99.90
11264;DHT22;5689;48.798;9.070;2023-02-28T05:38:47;-1.70;99.90
11264;DHT22;5689;48.798;9.070;2023-02-28T05:41:16;-1.80;99.90
11264;DHT22;5689;48.798;9.070;2023-02-28T05:43:46;-1.80;99.90
11264;DHT22;5689;48.798;9.070;2023-02-28T05:46:16;-1.70;99.90
11264;DHT22;5689;48.798;9.070;2023-02-28T05:48:46;-1.60;99.90
11264;DHT22;5689;48.798;9.070;2023-02-28T05:51:15;-1.60;99.90
11264;DHT22;5689;48.798;9.070;2023-02-28T05:53:44;-1.70;99.90
11264;DHT22;5689;48.798;9.070;2023-02-28T05:56:12;-1.50;99.90
11264;DHT22;5689;48.798;9.070;2023-02-28T05:58:40;-1.50;99.90
11264;DHT22;5689;48.798;9.070;2023-02-28T06:01:32;-1.60;99.90
11264;DHT22;5689;48.798;9.070;2023-02-28T06:04:00;-1.70;99.90
11264;DHT22;5689;48.798;9.070;2023-02-28T06:06:30;-1.70;99.90
11264;DHT22;5689;48.798;9.070;2023-02-28T06:08:58;-1.60;99.90
11264;DHT22;5689;48.798;9.070;2023-02-28T06:11:26;-1.70;99.90
11264;DHT22;5689;48.798;9.070;2023-02-28T06:13:56;-1.70;99.90
11264;DHT22;5689;48.798;9.070;2023-02-28T06:16:28;-1.70;99.90
11264;DHT22;5689;48.798;9.070;2023-02-28T06:18:57;-1.50;99.90
11264;DHT22;5689;48.798;9.070;2023-02-28T06:21:25;-1.50;99.90
11264;DHT22;5689;48.798;9.070;2023-02-28T06:23:55;-1.60;99.90
11264;DHT22;5689;48.798;9.070;2023-02-28T06:26:23;-1.50;99.90
11264;DHT22;5689;48.798;9.070;2023-02-28T06:28:52;-1.50;99.90
11264;DHT22;5689;48.798;9.070;2023-02-28T06:31:20;-1.40;99.90
11264;DHT22;5689;48.798;9.070;2023-02-28T06:33:50;-1.30;99.90
11264;DHT22;5689;48.798;9.070;2023-02-28T06:36:18;-1.20;99.90
11264;DHT22;5689;48.798;9.070;2023-02-28T06:38:46;-1.30;99.90
11264;DHT22;5689;48.798;9.070;2023-02-28T06:41:18;-1.40;99.90
11264;DHT22;5689;48.798;9.070;2023-02-28T06:43:46;-1.40;99.90
11264;DHT22;5689;48.798;9.070;2023-02-28T06:46:14;-1.40;99.90
11264;DHT22;5689;48.798;9.070;2023-02-28T06:48:43;-1.40;99.90
11264;DHT22;5689;48.798;9.070;2023-02-28T06:51:14;-1.40;99.90
11264;DHT22;5689;48.798;9.070;2023-02-28T06:53:43;-1.40;99.90
11264;DHT22;5689;48.798;9.070;2023-02-28T06:56:12;-1.40;99.90
11264;DHT22;5689;48.798;9.070;2023-02-28T06:58:41;-1.30;99.90
11264;DHT22;5689;48.798;9.070;2023-02-28T07:01:09;-1.20;99.90
11264;DHT22;5689;48.798;9.070;2023-02-28T07:03:37;-1.20;99.90
11264;DHT22;5689;48.798;9.070;2023-02-28T07:06:05;-1.10;99.90
11264;DHT22;5689;48.798;9.070;2023-02-28T07:08:35;-1.20;99.90
11264;DHT22;5689;48.798;9.070;2023-02-28T07:11:03;-1.20;99.90
11264;DHT22;5689;48.798;9.070;2023-02-28T07:13:32;-1.10;99.90
11264;DHT22;5689;48.798;9.070;2023-02-28T07:16:01;-1.20;99.90
11264;DHT22;5689;48.798;9.070;2023-02-28T07:18:30;-1.20;99.90
11264;DHT22;5689;48.798;9.070;2023-02-28T07:21:01;-1.20;99.90
11264;DHT22;5689;48.798;9.070;2023-02-28T07:23:29;-1.10;99.90
11264;DHT22;5689;48.798;9.070;2023-02-28T07:25:58;-1.20;99.90
11264;DHT22;5689;48.798;9.070;2023-02-28T07:28:26;-1.20;99.90
11264;DHT22;5689;48.798;9.070;2023-02-28T07:30:54;-1.10;99.90
11264;DHT22;5689;48.798;9.070;2023-02-28T07:33:22;-1.10;99.90
11264;DHT22;5689;48.798;9.070;2023-02-28T07:35:51;-1.10;99.90
11264;DHT22;5689;48.798;9.070;2023-02-28T07:38:19;-1.00;99.90
11264;DHT22;5689;48.798;9.070;2023-02-28T07:40:47;-1.00;99.90
11264;DHT22;5689;48.798;9.070;2023-02-28T07:43:16;-0.90;99.90
11264;DHT22;5689;48.798;9.070;2023-02-28T07:45:45;-0.70;99.90
11264;DHT22;5689;48.798;9.070;2023-02-28T07:48:13;-0.90;99.90
11264;DHT22;5689;48.798;9.070;2023-02-28T07:50:41;-0.90;99.90
11264;DHT22;5689;48.798;9.070;2023-02-28T07:53:08;-0.90;99.90
11264;DHT22;5689;48.798;9.070;2023-02-28T07:55:36;-0.80;99.90
11264;DHT22;5689;48.798;9.070;2023-02-28T07:58:04;-0.90;99.90
11264;DHT22;5689;48.798;9.070;2023-02-28T08:00:34;-1.00;99.90
11264;DHT22;5689;48.798;9.070;2023-02-28T08:03:02;-0.90;99.90
11264;DHT22;5689;48.798;9.070;2023-02-28T08:05:30;-0.70;99.90
11264;DHT22;5689;48.798;9.070;2023-02-28T08:07:58;-0.80;99.90
11264;DHT22;5689;48.798;9.070;2023-02-28T08:10:26;-0.80;99.90
11264;DHT22;5689;48.798;9.070;2023-02-28T08:12:54;-0.80;99.90
11264;DHT22;5689;48.798;9.070;2023-02-28T08:15:22;-0.80;99.90
11264;DHT22;5689;48.798;9.070;2023-02-28T08:17:51;-0.80;99.90
11264;DHT22;5689;48.798;9.070;2023-02-28T08:20:19;-0.70;99.90
11264;DHT22;5689;48.798;9.070;2023-02-28T08:22:47;-0.40;99.90
11264;DHT22;5689;48.798;9.070;2023-02-28T08:25:16;-0.30;99.90
11264;DHT22;5689;48.798;9.070;2023-02-28T08:27:44;-0.40;99.90
11264;DHT22;5689;48.798;9.070;2023-02-28T08:30:13;-0.70;99.90
11264;DHT22;5689;48.798;9.070;2023-02-28T08:32:41;-0.60;99.90
11264;DHT22;5689;48.798;9.070;2023-02-28T08:35:11;-0.40;99.90
11264;DHT22;5689;48.798;9.070;2023-02-28T08:37:39;-0.30;99.90
11264;DHT22;5689;48.798;9.070;2023-02-28T08:40:08;-0.20;99.90
11264;DHT22;5689;48.798;9.070;2023-02-28T08:42:36;-0.10;99.90
11264;DHT22;5689;48.798;9.070;2023-02-28T08:45:05;-0.20;99.90
11264;DHT22;5689;48.798;9.070;2023-02-28T08:47:33;0.00;99.90
11264;DHT22;5689;48.798;9.070;2023-02-28T08:50:02;-0.10;99.90
11264;DHT22;5689;48.798;9.070;2023-02-28T08:52:31;0.00;99.90
11264;DHT22;5689;48.798;9.070;2023-02-28T08:54:59;-0.10;99.90
11264;DHT22;5689;48.798;9.070;2023-02-28T08:57:27;0.00;99.90
11264;DHT22;5689;48.798;9.070;2023-02-28T08:59:55;-0.10;99.90
11264;DHT22;5689;48.798;9.070;2023-02-28T09:02:23;0.10;99.90
11264;DHT22;5689;48.798;9.070;2023-02-28T09:04:52;0.30;99.90
11264;DHT22;5689;48.798;9.070;2023-02-28T09:07:20;0.10;99.90
11264;DHT22;5689;48.798;9.070;2023-02-28T09:09:49;-0.10;99.90
11264;DHT22;5689;48.798;9.070;2023-02-28T09:12:25;0.20;99.90
11264;DHT22;5689;48.798;9.070;2023-02-28T09:14:53;0.10;99.90
11264;DHT22;5689;48.798;9.070;2023-02-28T09:17:21;0.20;99.90
11264;DHT22;5689;48.798;9.070;2023-02-28T09:19:49;0.30;99.90
11264;DHT22;5689;48.798;9.070;2023-02-28T09:22:17;0.50;99.90
11264;DHT22;5689;48.798;9.070;2023-02-28T09:24:45;0.70;99.90
11264;DHT22;5689;48.798;9.070;2023-02-28T09:27:15;0.90;99.90
11264;DHT22;5689;48.798;9.070;2023-02-28T09:29:42;0.90;99.90
11264;DHT22;5689;48.798;9.070;2023-02-28T09:32:10;1.00;99.90
11264;DHT22;5689;48.798;9.070;2023-02-28T09:34:38;1.30;99.90
11264;DHT22;5689;48.798;9.070;2023-02-28T09:37:06;1.10;99.90
11264;DHT22;5689;48.798;9.070;2023-02-28T09:39:34;0.40;99.90
11264;DHT22;5689;48.798;9.070;2023-02-28T09:42:03;0.20;99.90
11264;DHT22;5689;48.798;9.070;2023-02-28T09:44:37;0.20;99.90
11264;DHT22;5689;48.798;9.070;2023-02-28T09:47:10;0.50;99.90
11264;DHT22;5689;48.798;9.070;2023-02-28T09:49:42;0.60;99.90
11264;DHT22;5689;48.798;9.070;2023-02-28T09:52:16;0.90;99.90
11264;DHT22;5689;48.798;9.070;2023-02-28T09:54:46;1.00;99.90
11264;DHT22;5689;48.798;9.070;2023-02-28T09:57:31;1.30;99.90
11264;DHT22;5689;48.798;9.070;2023-02-28T10:00:07;1.10;99.90
11264;DHT22;5689;48.798;9.070;2023-02-28T10:03:00;1.50;99.90
11264;DHT22;5689;48.798;9.070;2023-02-28T10:05:34;1.20;99.90
11264;DHT22;5689;48.798;9.070;2023-02-28T10:08:09;0.90;99.90
11264;DHT22;5689;48.798;9.070;2023-02-28T10:10:42;1.10;99.90
11264;DHT22;5689;48.798;9.070;2023-02-28T10:13:22;1.50;99.40
11264;DHT22;5689;48.798;9.070;2023-02-28T10:15:55;1.10;99.80
11264;DHT22;5689;48.798;9.070;2023-02-28T10:18:27;0.70;99.70
11264;DHT22;5689;48.798;9.070;2023-02-28T10:20:57;0.80;99.90
11264;DHT22;5689;48.798;9.070;2023-02-28T10:23:34;1.10;99.70
11264;DHT22;5689;48.798;9.070;2023-02-28T10:26:11;0.90;99.50
11264;DHT22;5689;48.798;9.070;2023-02-28T10:28:40;1.10;99.70
11264;DHT22;5689;48.798;9.070;2023-02-28T10:31:13;1.10;99.50
11264;DHT22;5689;48.798;9.070;2023-02-28T10:33:43;1.60;98.60
11264;DHT22;5689;48.798;9.070;2023-02-28T10:36:14;1.50;98.70
11264;DHT22;5689;48.798;9.070;2023-02-28T10:38:45;1.70;98.60
11264;DHT22;5689;48.798;9.070;2023-02-28T10:41:17;2.00;98.60
11264;DHT22;5689;48.798;9.070;2023-02-28T10:44:12;2.40;97.70
11264;DHT22;5689;48.798;9.070;2023-02-28T10:46:42;1.70;97.90
11264;DHT22;5689;48.798;9.070;2023-02-28T10:49:17;1.50;98.10
11264;DHT22;5689;48.798;9.070;2023-02-28T10:51:50;2.10;98.30
11264;DHT22;5689;48.798;9.070;2023-02-28T10:54:22;2.50;97.50
11264;DHT22;5689;48.798;9.070;2023-02-28T10:57:09;2.90;96.50
11264;DHT22;5689;48.798;9.070;2023-02-28T10:59:41;3.40;95.70
11264;DHT22;5689;48.798;9.070;2023-02-28T11:02:33;2.60;95.70
11264;DHT22;5689;48.798;9.070;2023-02-28T11:05:01;2.40;95.90
11264;DHT22;5689;48.798;9.070;2023-02-28T11:07:29;2.40;97.00
11264;DHT22;5689;48.798;9.070;2023-02-28T11:10:16;3.40;95.40
11264;DHT22;5689;48.798;9.070;2023-02-28T11:12:45;3.70;94.60
11264;DHT22;5689;48.798;9.070;2023-02-28T11:15:22;5.90;94.60
11264;DHT22;5689;48.798;9.070;2023-02-28T11:17:57;8.50;89.30
11264;DHT22;5689;48.798;9.070;2023-02-28T11:20:28;9.00;82.20
11264;DHT22;5689;48.798;9.070;2023-02-28T11:22:58;7.70;81.00
11264;DHT22;5689;48.798;9.070;2023-02-28T11:25:30;6.60;82.80
11264;DHT22;5689;48.798;9.070;2023-02-28T11:28:01;7.10;85.70
11264;DHT22;5689;48.798;9.070;2023-02-28T11:30:35;7.80;79.30
11264;DHT22;5689;48.798;9.070;2023-02-28T11:33:22;7.40;80.30
11264;DHT22;5689;48.798;9.070;2023-02-28T11:35:51;7.20;83.30
11264;DHT22;5689;48.798;9.070;2023-02-28T11:38:20;8.90;80.40
11264;DHT22;5689;48.798;9.070;2023-02-28T11:40:55;6.80;81.40
11264;DHT22;5689;48.798;9.070;2023-02-28T11:43:34;7.60;82.20
11264;DHT22;5689;48.798;9.070;2023-02-28T11:46:18;7.80;76.20
11264;DHT22;5689;48.798;9.070;2023-02-28T11:48:58;10.50;77.30
11264;DHT22;5689;48.798;9.070;2023-02-28T11:51:33;11.00;69.10
11264;DHT22;5689;48.798;9.070;2023-02-28T11:54:18;10.70;72.10
11264;DHT22;5689;48.798;9.070;2023-02-28T11:56:53;11.00;67.10
11264;DHT22;5689;48.798;9.070;2023-02-28T11:59:36;12.90;67.30
11264;DHT22;5689;48.798;9.070;2023-02-28T12:02:26;14.80;62.90
11264;DHT22;5689;48.798;9.070;2023-02-28T12:05:13;14.20;57.80
11264;DHT22;5689;48.798;9.070;2023-02-28T12:07:51;13.40;57.60
11264;DHT22;5689;48.798;9.070;2023-02-28T12:10:25;11.00;64.30
11264;DHT22;5689;48.798;9.070;2023-02-28T12:13:12;12.90;60.70
11264;DHT22;5689;48.798;9.070;2023-02-28T12:16:07;12.40;60.10
11264;DHT22;5689;48.798;9.070;2023-02-28T12:18:52;9.10;64.50
11264;DHT22;5689;48.798;9.070;2023-02-28T12:21:30;11.70;66.70
11264;DHT22;5689;48.798;9.070;2023-02-28T12:24:24;11.60;60.80
11264;DHT22;5689;48.798;9.070;2023-02-28T12:26:59;8.70;68.00
11264;DHT22;5689;48.798;9.070;2023-02-28T12:29:29;9.50;67.90
11264;DHT22;5689;48.798;9.070;2023-02-28T12:32:03;12.60;63.70
11264;DHT22;5689;48.798;9.070;2023-02-28T12:34:36;12.00;59.60
11264;DHT22;5689;48.798;9.070;2023-02-28T12:37:12;10.90;61.00
11264;DHT22;5689;48.798;9.070;2023-02-28T12:39:45;10.90;66.00
11264;DHT22;5689;48.798;9.070;2023-02-28T12:42:21;11.20;63.80
11264;DHT22;5689;48.798;9.070;2023-02-28T12:44:54;12.00;60.40
11264;DHT22;5689;48.798;9.070;2023-02-28T12:47:24;12.80;60.20
11264;DHT22;5689;48.798;9.070;2023-02-28T12:49:56;13.30;59.30
11264;DHT22;5689;48.798;9.070;2023-02-28T12:52:34;13.20;59.00
11264;DHT22;5689;48.798;9.070;2023-02-28T12:55:06;13.80;57.80
11264;DHT22;5689;48.798;9.070;2023-02-28T12:57:40;11.80;59.40
11264;DHT22;5689;48.798;9.070;2023-02-28T13:00:13;11.40;59.70
11264;DHT22;5689;48.798;9.070;2023-02-28T13:03:26;11.10;61.40
11264;DHT22;5689;48.798;9.070;2023-02-28T13:06:20;10.90;60.80
11264;DHT22;5689;48.798;9.070;2023-02-28T13:09:09;12.10;58.50
11264;DHT22;5689;48.798;9.070;2023-02-28T13:11:41;12.50;58.00
11264;DHT22;5689;48.798;9.070;2023-02-28T13:14:23;9.90;62.90
11264;DHT22;5689;48.798;9.070;2023-02-28T13:16:57;10.20;61.20
11264;DHT22;5689;48.798;9.070;2023-02-28T13:19:28;8.30;66.90
11264;DHT22;5689;48.798;9.070;2023-02-28T13:21:57;8.80;65.50
11264;DHT22;5689;48.798;9.070;2023-02-28T13:24:48;8.30;68.30
11264;DHT22;5689;48.798;9.070;2023-02-28T13:27:36;10.60;63.00
11264;DHT22;5689;48.798;9.070;2023-02-28T13:33:24;8.20;66.60
11264;DHT22;5689;48.798;9.070;2023-02-28T13:36:21;8.30;68.20
11264;DHT22;5689;48.798;9.070;2023-02-28T13:38:51;9.10;65.00
11264;DHT22;5689;48.798;9.070;2023-02-28T13:41:47;8.50;65.70
11264;DHT22;5689;48.798;9.070;2023-02-28T13:44:17;10.30;63.10
11264;DHT22;5689;48.798;9.070;2023-02-28T13:47:19;10.10;62.30
11264;DHT22;5689;48.798;9.070;2023-02-28T13:49:50;9.70;63.90
11264;DHT22;5689;48.798;9.070;2023-02-28T13:52:21;10.50;64.20
11264;DHT22;5689;48.798;9.070;2023-02-28T13:58:09;12.40;59.80
11264;DHT22;5689;48.798;9.070;2023-02-28T14:01:05;10.20;60.80
11264;DHT22;5689;48.798;9.070;2023-02-28T14:03:48;8.40;66.70
11264;DHT22;5689;48.798;9.070;2023-02-28T14:06:25;8.50;66.70
11264;DHT22;5689;48.798;9.070;2023-02-28T14:08:59;9.50;65.80
11264;DHT22;5689;48.798;9.070;2023-02-28T14:11:32;11.60;61.90
11264;DHT22;5689;48.798;9.070;2023-02-28T14:14:03;11.40;61.70
11264;DHT22;5689;48.798;9.070;2023-02-28T14:16:38;11.60;59.50
11264;DHT22;5689;48.798;9.070;2023-02-28T14:19:12;13.30;59.30
11264;DHT22;5689;48.798;9.070;2023-02-28T14:21:56;14.70;57.30
11264;DHT22;5689;48.798;9.070;2023-02-28T14:24:47;16.00;55.20
11264;DHT22;5689;48.798;9.070;2023-02-28T14:27:27;14.40;55.00
11264;DHT22;5689;48.798;9.070;2023-02-28T14:33:13;12.80;58.50
11264;DHT22;5689;48.798;9.070;2023-02-28T14:36:01;14.00;56.30
11264;DHT22;5689;48.798;9.070;2023-02-28T14:38:33;13.50;55.50
11264;DHT22;5689;48.798;9.070;2023-02-28T14:41:05;12.40;57.60
11264;DHT22;5689;48.798;9.070;2023-02-28T14:43:34;11.60;59.00
11264;DHT22;5689;48.798;9.070;2023-02-28T14:46:04;12.90;58.70
11264;DHT22;5689;48.798;9.070;2023-02-28T14:48:36;13.00;57.00
11264;DHT22;5689;48.798;9.070;2023-02-28T14:51:05;11.50;58.20
11264;DHT22;5689;48.798;9.070;2023-02-28T14:53:36;9.80;61.90
11264;DHT22;5689;48.798;9.070;2023-02-28T14:56:06;9.50;63.40
11264;DHT22;5689;48.798;9.070;2023-02-28T14:58:35;8.60;64.20
11264;DHT22;5689;48.798;9.070;2023-02-28T15:01:04;8.50;66.70
11264;DHT22;5689;48.798;9.070;2023-02-28T15:03:34;8.80;66.40
11264;DHT22;5689;48.798;9.070;2023-02-28T15:06:05;9.60;65.30
11264;DHT22;5689;48.798;9.070;2023-02-28T15:08:33;8.90;66.10
11264;DHT22;5689;48.798;9.070;2023-02-28T15:11:04;8.50;65.80
11264;DHT22;5689;48.798;9.070;2023-02-28T15:13:38;10.20;62.60
11264;DHT22;5689;48.798;9.070;2023-02-28T15:16:10;9.40;64.70
11264;DHT22;5689;48.798;9.070;2023-02-28T15:18:44;9.10;65.10
11264;DHT22;5689;48.798;9.070;2023-02-28T15:21:18;8.10;66.60
11264;DHT22;5689;48.798;9.070;2023-02-28T15:23:52;8.50;66.90
11264;DHT22;5689;48.798;9.070;2023-02-28T15:26:24;6.90;68.30
11264;DHT22;5689;48.798;9.070;2023-02-28T15:28:59;7.90;70.00
11264;DHT22;5689;48.798;9.070;2023-02-28T15:31:30;8.70;68.80
11264;DHT22;5689;48.798;9.070;2023-02-28T15:34:18;8.80;67.80
11264;DHT22;5689;48.798;9.070;2023-02-28T15:36:50;9.20;65.90
11264;DHT22;5689;48.798;9.070;2023-02-28T15:39:23;8.10;67.70
11264;DHT22;5689;48.798;9.070;2023-02-28T15:42:11;7.90;68.40
11264;DHT22;5689;48.798;9.070;2023-02-28T15:44:39;7.10;69.60
11264;DHT22;5689;48.798;9.070;2023-02-28T15:47:16;7.20;70.70
11264;DHT22;5689;48.798;9.070;2023-02-28T15:49:47;7.30;70.50
11264;DHT22;5689;48.798;9.070;2023-02-28T15:52:20;8.20;69.80
11264;DHT22;5689;48.798;9.070;2023-02-28T15:54:49;8.30;67.90
11264;DHT22;5689;48.798;9.070;2023-02-28T15:57:20;8.10;68.50
11264;DHT22;5689;48.798;9.070;2023-02-28T15:59:52;7.40;68.90
11264;DHT22;5689;48.798;9.070;2023-02-28T16:02:25;7.20;70.70
11264;DHT22;5689;48.798;9.070;2023-02-28T16:05:23;6.40;72.00
11264;DHT22;5689;48.798;9.070;2023-02-28T16:07:57;6.80;72.80
11264;DHT22;5689;48.798;9.070;2023-02-28T16:10:27;6.90;72.90
11264;DHT22;5689;48.798;9.070;2023-02-28T16:12:56;7.40;72.40
11264;DHT22;5689;48.798;9.070;2023-02-28T16:15:26;7.30;71.70
11264;DHT22;5689;48.798;9.070;2023-02-28T16:17:56;7.70;70.80
11264;DHT22;5689;48.798;9.070;2023-02-28T16:20:28;7.90;70.20
11264;DHT22;5689;48.798;9.070;2023-02-28T16:22:58;7.80;70.20
11264;DHT22;5689;48.798;9.070;2023-02-28T16:25:33;7.40;71.40
11264;DHT22;5689;48.798;9.070;2023-02-28T16:28:02;6.50;72.50
11264;DHT22;5689;48.798;9.070;2023-02-28T16:30:30;6.20;74.00
11264;DHT22;5689;48.798;9.070;2023-02-28T16:32:59;5.90;75.10
11264;DHT22;5689;48.798;9.070;2023-02-28T16:35:27;6.30;73.80
11264;DHT22;5689;48.798;9.070;2023-02-28T16:37:55;7.00;73.80